sensor_id;sensor_type;location;lat;lon;timestamp;temperature;humidity
55721;DHT22;41626;53.098;6.168;2023-05-10T00:00:23;13.00;99.90
55721;DHT22;41626;53.098;6.168;2023-05-10T00:02:49;13.00;99.90
55721;DHT22;41626;53.098;6.168;2023-05-10T00:05:15;13.00;99.90
55721;DHT22;41626;53.098;6.168;2023-05-10T00:07:41;13.00;99.90
55721;DHT22;41626;53.098;6.168;2023-05-10T00:10:10;13.10;99.90
55721;DHT22;41626;53.098;6.168;2023-05-10T00:12:36;12.80;99.90
55721;DHT22;41626;53.098;6.168;2023-05-10T00:15:02;13.00;99.90
55721;DHT22;41626;53.098;6.168;2023-05-10T00:17:28;12.90;99.90
55721;DHT22;41626;53.098;6.168;2023-05-10T00:19:54;13.00;99.90
55721;DHT22;41626;53.098;6.168;2023-05-10T00:22:20;12.80;99.90
55721;DHT22;41626;53.098;6.168;2023-05-10T00:24:45;12.80;99.90
55721;DHT22;41626;53.098;6.168;2023-05-10T00:27:11;12.80;99.90
55721;DHT22;41626;53.098;6.168;2023-05-10T00:29:37;12.80;99.90
55721;DHT22;41626;53.098;6.168;2023-05-10T00:32:02;12.80;99.90
55721;DHT22;41626;53.098;6.168;2023-05-10T00:34:28;13.00;99.90
55721;DHT22;41626;53.098;6.168;2023-05-10T00:36:54;12.90;99.90
55721;DHT22;41626;53.098;6.168;2023-05-10T00:39:20;12.60;99.90
55721;DHT22;41626;53.098;6.168;2023-05-10T00:41:45;12.90;99.90
55721;DHT22;41626;53.098;6.168;2023-05-10T00:44:11;12.80;99.90
55721;DHT22;41626;53.098;6.168;2023-05-10T00:46:37;12.90;99.90
55721;DHT22;41626;53.098;6.168;2023-05-10T00:49:02;12.70;99.90
55721;DHT22;41626;53.098;6.168;2023-05-10T00:51:28;12.70;99.90
55721;DHT22;41626;53.098;6.168;2023-05-10T00:53:54;12.90;99.90
55721;DHT22;41626;53.098;6.168;2023-05-10T00:56:21;12.70;99.90
55721;DHT22;41626;53.098;6.168;2023-05-10T00:58:49;12.80;99.90
55721;DHT22;41626;53.098;6.168;2023-05-10T01:01:14;12.80;99.90
55721;DHT22;41626;53.098;6.168;2023-05-10T01:03:40;12.80;99.90
55721;DHT22;41626;53.098;6.168;2023-05-10T01:06:07;12.90;99.90
55721;DHT22;41626;53.098;6.168;2023-05-10T01:08:33;12.70;99.90
55721;DHT22;41626;53.098;6.168;2023-05-10T01:10:59;12.70;99.90
55721;DHT22;41626;53.098;6.168;2023-05-10T01:13:34;12.80;99.90
55721;DHT22;41626;53.098;6.168;2023-05-10T01:16:00;12.90;99.90
55721;DHT22;41626;53.098;6.168;2023-05-10T01:18:40;12.70;99.90
55721;DHT22;41626;53.098;6.168;2023-05-10T01:32:24;12.70;99.90
55721;DHT22;41626;53.098;6.168;2023-05-10T01:35:07;12.70;99.90
55721;DHT22;41626;53.098;6.168;2023-05-10T01:40:46;12.50;99.90
55721;DHT22;41626;53.098;6.168;2023-05-10T01:43:22;12.70;99.90
55721;DHT22;41626;53.098;6.168;2023-05-10T01:45:57;12.60;99.90
55721;DHT22;41626;53.098;6.168;2023-05-10T01:48:25;12.70;99.90
55721;DHT22;41626;53.098;6.168;2023-05-10T01:50:53;12.80;99.90
55721;DHT22;41626;53.098;6.168;2023-05-10T01:53:21;12.70;99.90
55721;DHT22;41626;53.098;6.168;2023-05-10T01:55:53;12.60;99.90
55721;DHT22;41626;53.098;6.168;2023-05-10T01:58:25;12.50;99.90
55721;DHT22;41626;53.098;6.168;2023-05-10T02:00:53;12.50;99.90
55721;DHT22;41626;53.098;6.168;2023-05-10T02:03:22;12.60;99.90
55721;DHT22;41626;53.098;6.168;2023-05-10T02:05:49;12.70;99.90
55721;DHT22;41626;53.098;6.168;2023-05-10T02:08:17;12.60;99.90
55721;DHT22;41626;53.098;6.168;2023-05-10T02:10:45;12.60;99.90
55721;DHT22;41626;53.098;6.168;2023-05-10T02:13:13;12.70;99.90
55721;DHT22;41626;53.098;6.168;2023-05-10T02:15:40;12.60;99.90
55721;DHT22;41626;53.098;6.168;2023-05-10T02:18:07;12.60;99.90
55721;DHT22;41626;53.098;6.168;2023-05-10T02:20:33;12.60;99.90
55721;DHT22;41626;53.098;6.168;2023-05-10T02:23:01;12.60;99.90
55721;DHT22;41626;53.098;6.168;2023-05-10T02:25:29;12.70;99.90
55721;DHT22;41626;53.098;6.168;2023-05-10T02:27:57;12.80;99.90
55721;DHT22;41626;53.098;6.168;2023-05-10T02:30:25;12.70;99.90
55721;DHT22;41626;53.098;6.168;2023-05-10T02:32:51;12.80;99.90
55721;DHT22;41626;53.098;6.168;2023-05-10T02:35:18;12.70;99.90
55721;DHT22;41626;53.098;6.168;2023-05-10T02:37:45;12.80;99.90
55721;DHT22;41626;53.098;6.168;2023-05-10T02:40:13;12.70;99.90
55721;DHT22;41626;53.098;6.168;2023-05-10T02:42:41;12.60;99.90
55721;DHT22;41626;53.098;6.168;2023-05-10T02:45:11;12.60;99.90
55721;DHT22;41626;53.098;6.168;2023-05-10T02:47:37;12.60;99.90
55721;DHT22;41626;53.098;6.168;2023-05-10T02:50:03;12.60;99.90
55721;DHT22;41626;53.098;6.168;2023-05-10T02:52:36;12.60;99.90
55721;DHT22;41626;53.098;6.168;2023-05-10T02:55:05;12.60;99.90
55721;DHT22;41626;53.098;6.168;2023-05-10T02:57:35;12.60;99.90
55721;DHT22;41626;53.098;6.168;2023-05-10T03:00:04;12.70;99.90
55721;DHT22;41626;53.098;6.168;2023-05-10T03:02:30;12.60;99.90
55721;DHT22;41626;53.098;6.168;2023-05-10T03:04:56;12.50;99.90
55721;DHT22;41626;53.098;6.168;2023-05-10T03:07:22;12.70;99.90
55721;DHT22;41626;53.098;6.168;2023-05-10T03:09:48;12.60;99.90
55721;DHT22;41626;53.098;6.168;2023-05-10T03:12:31;12.70;99.90
55721;DHT22;41626;53.098;6.168;2023-05-10T03:15:19;12.50;99.90
55721;DHT22;41626;53.098;6.168;2023-05-10T03:18:01;12.50;99.90
55721;DHT22;41626;53.098;6.168;2023-05-10T03:20:49;12.60;99.90
55721;DHT22;41626;53.098;6.168;2023-05-10T03:23:22;12.50;99.90
55721;DHT22;41626;53.098;6.168;2023-05-10T03:25:52;12.60;99.90
55721;DHT22;41626;53.098;6.168;2023-05-10T03:28:18;12.60;99.90
55721;DHT22;41626;53.098;6.168;2023-05-10T03:30:46;12.60;99.90
55721;DHT22;41626;53.098;6.168;2023-05-10T03:33:12;12.70;99.90
55721;DHT22;41626;53.098;6.168;2023-05-10T03:35:38;12.40;99.90
55721;DHT22;41626;53.098;6.168;2023-05-10T03:38:04;12.50;99.90
55721;DHT22;41626;53.098;6.168;2023-05-10T03:40:30;12.60;99.90
55721;DHT22;41626;53.098;6.168;2023-05-10T03:43:00;12.60;99.90
55721;DHT22;41626;53.098;6.168;2023-05-10T03:45:26;12.60;99.90
55721;DHT22;41626;53.098;6.168;2023-05-10T03:47:52;12.60;99.90
55721;DHT22;41626;53.098;6.168;2023-05-10T03:50:18;12.70;99.90
55721;DHT22;41626;53.098;6.168;2023-05-10T03:52:43;12.70;99.90
55721;DHT22;41626;53.098;6.168;2023-05-10T03:55:10;12.50;99.90
55721;DHT22;41626;53.098;6.168;2023-05-10T03:57:35;12.40;99.90
55721;DHT22;41626;53.098;6.168;2023-05-10T04:00:02;12.50;99.90
55721;DHT22;41626;53.098;6.168;2023-05-10T04:02:28;12.60;99.90
55721;DHT22;41626;53.098;6.168;2023-05-10T04:04:55;12.50;99.90
55721;DHT22;41626;53.098;6.168;2023-05-10T04:07:21;12.40;99.90
55721;DHT22;41626;53.098;6.168;2023-05-10T04:09:46;12.50;99.90
55721;DHT22;41626;53.098;6.168;2023-05-10T04:12:12;12.60;99.90
55721;DHT22;41626;53.098;6.168;2023-05-10T04:14:38;12.60;99.90
55721;DHT22;41626;53.098;6.168;2023-05-10T04:17:03;12.30;99.90
55721;DHT22;41626;53.098;6.168;2023-05-10T04:19:32;12.40;99.90
55721;DHT22;41626;53.098;6.168;2023-05-10T04:21:58;12.50;99.90
55721;DHT22;41626;53.098;6.168;2023-05-10T04:24:24;12.30;99.90
55721;DHT22;41626;53.098;6.168;2023-05-10T04:26:50;12.50;99.90
55721;DHT22;41626;53.098;6.168;2023-05-10T04:29:16;12.50;99.90
55721;DHT22;41626;53.098;6.168;2023-05-10T04:31:42;12.50;99.90
55721;DHT22;41626;53.098;6.168;2023-05-10T04:34:07;12.50;99.90
55721;DHT22;41626;53.098;6.168;2023-05-10T04:36:33;12.30;99.90
55721;DHT22;41626;53.098;6.168;2023-05-10T04:39:01;12.50;99.90
55721;DHT22;41626;53.098;6.168;2023-05-10T04:41:28;12.20;99.90
55721;DHT22;41626;53.098;6.168;2023-05-10T04:43:54;12.40;99.90
55721;DHT22;41626;53.098;6.168;2023-05-10T04:46:19;12.30;99.90
55721;DHT22;41626;53.098;6.168;2023-05-10T04:48:45;12.50;99.90
55721;DHT22;41626;53.098;6.168;2023-05-10T04:51:11;12.30;99.90
55721;DHT22;41626;53.098;6.168;2023-05-10T04:53:36;12.40;99.90
55721;DHT22;41626;53.098;6.168;2023-05-10T04:56:02;12.50;99.90
55721;DHT22;41626;53.098;6.168;2023-05-10T04:58:28;12.30;99.90
55721;DHT22;41626;53.098;6.168;2023-05-10T05:00:54;12.30;99.90
55721;DHT22;41626;53.098;6.168;2023-05-10T05:03:19;12.40;99.90
55721;DHT22;41626;53.098;6.168;2023-05-10T05:05:45;12.30;99.90
55721;DHT22;41626;53.098;6.168;2023-05-10T05:08:11;12.30;99.90
55721;DHT22;41626;53.098;6.168;2023-05-10T05:10:36;12.50;99.90
55721;DHT22;41626;53.098;6.168;2023-05-10T05:13:02;12.30;99.90
55721;DHT22;41626;53.098;6.168;2023-05-10T05:15:27;12.40;99.90
55721;DHT22;41626;53.098;6.168;2023-05-10T05:17:53;12.30;99.90
55721;DHT22;41626;53.098;6.168;2023-05-10T05:20:19;12.40;99.90
55721;DHT22;41626;53.098;6.168;2023-05-10T05:22:45;12.30;99.90
55721;DHT22;41626;53.098;6.168;2023-05-10T05:25:10;12.40;99.90
55721;DHT22;41626;53.098;6.168;2023-05-10T05:27:37;12.40;99.90
55721;DHT22;41626;53.098;6.168;2023-05-10T05:30:03;12.40;99.90
55721;DHT22;41626;53.098;6.168;2023-05-10T05:32:29;12.30;99.90
55721;DHT22;41626;53.098;6.168;2023-05-10T05:34:55;12.30;99.90
55721;DHT22;41626;53.098;6.168;2023-05-10T05:37:21;12.50;99.90
55721;DHT22;41626;53.098;6.168;2023-05-10T05:39:48;12.40;99.90
55721;DHT22;41626;53.098;6.168;2023-05-10T05:42:14;12.30;99.90
55721;DHT22;41626;53.098;6.168;2023-05-10T05:44:41;12.30;99.90
55721;DHT22;41626;53.098;6.168;2023-05-10T05:47:07;12.20;99.90
55721;DHT22;41626;53.098;6.168;2023-05-10T05:49:33;12.20;99.90
55721;DHT22;41626;53.098;6.168;2023-05-10T05:52:00;12.40;99.90
55721;DHT22;41626;53.098;6.168;2023-05-10T05:54:29;12.30;99.90
55721;DHT22;41626;53.098;6.168;2023-05-10T05:56:58;12.40;99.90
55721;DHT22;41626;53.098;6.168;2023-05-10T05:59:24;12.30;99.90
55721;DHT22;41626;53.098;6.168;2023-05-10T06:01:50;12.40;99.90
55721;DHT22;41626;53.098;6.168;2023-05-10T06:04:16;12.40;99.90
55721;DHT22;41626;53.098;6.168;2023-05-10T06:06:43;12.40;99.90
55721;DHT22;41626;53.098;6.168;2023-05-10T06:09:09;12.40;99.90
55721;DHT22;41626;53.098;6.168;2023-05-10T06:11:35;12.70;99.90
55721;DHT22;41626;53.098;6.168;2023-05-10T06:14:01;12.60;99.90
55721;DHT22;41626;53.098;6.168;2023-05-10T06:16:27;12.60;99.90
55721;DHT22;41626;53.098;6.168;2023-05-10T06:18:53;12.60;99.90
55721;DHT22;41626;53.098;6.168;2023-05-10T06:21:19;12.50;99.90
55721;DHT22;41626;53.098;6.168;2023-05-10T06:23:44;12.50;99.90
55721;DHT22;41626;53.098;6.168;2023-05-10T06:26:10;12.70;99.90
55721;DHT22;41626;53.098;6.168;2023-05-10T06:28:36;12.70;99.90
55721;DHT22;41626;53.098;6.168;2023-05-10T06:31:04;12.80;99.90
55721;DHT22;41626;53.098;6.168;2023-05-10T06:33:30;12.60;99.90
55721;DHT22;41626;53.098;6.168;2023-05-10T06:35:55;12.70;99.90
55721;DHT22;41626;53.098;6.168;2023-05-10T06:38:21;12.60;99.90
55721;DHT22;41626;53.098;6.168;2023-05-10T06:40:47;12.70;99.90
55721;DHT22;41626;53.098;6.168;2023-05-10T06:43:13;12.70;99.90
55721;DHT22;41626;53.098;6.168;2023-05-10T06:45:39;12.80;99.90
55721;DHT22;41626;53.098;6.168;2023-05-10T06:48:04;12.70;99.90
55721;DHT22;41626;53.098;6.168;2023-05-10T06:50:30;12.80;99.90
55721;DHT22;41626;53.098;6.168;2023-05-10T06:52:56;12.80;99.90
55721;DHT22;41626;53.098;6.168;2023-05-10T06:55:22;13.00;99.90
55721;DHT22;41626;53.098;6.168;2023-05-10T06:57:47;13.10;99.90
55721;DHT22;41626;53.098;6.168;2023-05-10T07:00:14;13.00;99.90
55721;DHT22;41626;53.098;6.168;2023-05-10T07:02:40;13.00;99.90
55721;DHT22;41626;53.098;6.168;2023-05-10T07:05:06;13.20;99.90
55721;DHT22;41626;53.098;6.168;2023-05-10T07:07:31;13.30;99.90
55721;DHT22;41626;53.098;6.168;2023-05-10T07:09:57;13.20;99.90
55721;DHT22;41626;53.098;6.168;2023-05-10T07:12:24;13.50;99.90
55721;DHT22;41626;53.098;6.168;2023-05-10T07:14:50;13.40;99.90
55721;DHT22;41626;53.098;6.168;2023-05-10T07:17:15;13.40;99.90
55721;DHT22;41626;53.098;6.168;2023-05-10T07:19:41;13.50;99.90
55721;DHT22;41626;53.098;6.168;2023-05-10T07:22:07;13.30;99.90
55721;DHT22;41626;53.098;6.168;2023-05-10T07:24:33;13.30;99.90
55721;DHT22;41626;53.098;6.168;2023-05-10T07:26:59;13.30;99.90
55721;DHT22;41626;53.098;6.168;2023-05-10T07:29:25;13.50;99.90
55721;DHT22;41626;53.098;6.168;2023-05-10T07:31:50;13.30;99.90
55721;DHT22;41626;53.098;6.168;2023-05-10T07:34:16;13.10;99.90
55721;DHT22;41626;53.098;6.168;2023-05-10T07:36:42;13.20;99.90
55721;DHT22;41626;53.098;6.168;2023-05-10T07:39:08;13.10;99.90
55721;DHT22;41626;53.098;6.168;2023-05-10T07:41:33;13.20;99.90
55721;DHT22;41626;53.098;6.168;2023-05-10T07:43:59;13.40;99.90
55721;DHT22;41626;53.098;6.168;2023-05-10T07:46:24;13.50;99.90
55721;DHT22;41626;53.098;6.168;2023-05-10T07:48:50;13.50;99.90
55721;DHT22;41626;53.098;6.168;2023-05-10T07:51:16;13.40;99.90
55721;DHT22;41626;53.098;6.168;2023-05-10T07:53:41;13.40;99.90
55721;DHT22;41626;53.098;6.168;2023-05-10T07:56:24;13.30;99.90
55721;DHT22;41626;53.098;6.168;2023-05-10T07:58:51;13.10;99.90
55721;DHT22;41626;53.098;6.168;2023-05-10T08:01:18;13.10;99.90
55721;DHT22;41626;53.098;6.168;2023-05-10T08:03:43;13.10;99.90
55721;DHT22;41626;53.098;6.168;2023-05-10T08:06:09;13.10;99.90
55721;DHT22;41626;53.098;6.168;2023-05-10T08:08:35;13.00;99.90
55721;DHT22;41626;53.098;6.168;2023-05-10T08:11:01;13.00;99.90
55721;DHT22;41626;53.098;6.168;2023-05-10T08:13:27;13.10;99.90
55721;DHT22;41626;53.098;6.168;2023-05-10T08:15:52;13.10;99.90
55721;DHT22;41626;53.098;6.168;2023-05-10T08:18:19;13.00;99.90
55721;DHT22;41626;53.098;6.168;2023-05-10T08:20:44;13.10;99.90
55721;DHT22;41626;53.098;6.168;2023-05-10T08:23:12;13.00;99.90
55721;DHT22;41626;53.098;6.168;2023-05-10T08:25:38;13.10;99.90
55721;DHT22;41626;53.098;6.168;2023-05-10T08:28:04;13.10;99.90
55721;DHT22;41626;53.098;6.168;2023-05-10T08:30:29;13.20;99.90
55721;DHT22;41626;53.098;6.168;2023-05-10T08:32:55;13.30;99.90
55721;DHT22;41626;53.098;6.168;2023-05-10T08:35:21;13.20;99.90
55721;DHT22;41626;53.098;6.168;2023-05-10T08:37:46;13.30;99.90
55721;DHT22;41626;53.098;6.168;2023-05-10T08:40:12;13.20;99.90
55721;DHT22;41626;53.098;6.168;2023-05-10T08:42:40;13.30;99.90
55721;DHT22;41626;53.098;6.168;2023-05-10T08:45:10;13.30;99.90
55721;DHT22;41626;53.098;6.168;2023-05-10T08:47:37;13.30;99.90
55721;DHT22;41626;53.098;6.168;2023-05-10T08:50:03;13.50;99.90
55721;DHT22;41626;53.098;6.168;2023-05-10T08:52:30;13.80;99.90
55721;DHT22;41626;53.098;6.168;2023-05-10T08:54:56;13.60;99.90
55721;DHT22;41626;53.098;6.168;2023-05-10T08:57:22;13.80;99.90
55721;DHT22;41626;53.098;6.168;2023-05-10T08:59:48;13.90;99.90
55721;DHT22;41626;53.098;6.168;2023-05-10T09:02:14;13.80;99.90
55721;DHT22;41626;53.098;6.168;2023-05-10T09:04:40;14.00;99.90
55721;DHT22;41626;53.098;6.168;2023-05-10T09:07:06;14.10;99.90
55721;DHT22;41626;53.098;6.168;2023-05-10T09:09:33;14.10;99.90
55721;DHT22;41626;53.098;6.168;2023-05-10T09:11:59;14.00;99.90
55721;DHT22;41626;53.098;6.168;2023-05-10T09:14:25;14.30;99.90
55721;DHT22;41626;53.098;6.168;2023-05-10T09:16:52;14.30;99.90
55721;DHT22;41626;53.098;6.168;2023-05-10T09:19:19;14.30;99.90
55721;DHT22;41626;53.098;6.168;2023-05-10T09:21:45;14.40;99.90
55721;DHT22;41626;53.098;6.168;2023-05-10T09:24:11;14.40;99.90
55721;DHT22;41626;53.098;6.168;2023-05-10T09:26:46;14.30;99.90
55721;DHT22;41626;53.098;6.168;2023-05-10T09:29:13;14.60;99.90
55721;DHT22;41626;53.098;6.168;2023-05-10T09:31:47;14.90;99.90
55721;DHT22;41626;53.098;6.168;2023-05-10T09:34:20;14.70;99.90
55721;DHT22;41626;53.098;6.168;2023-05-10T09:36:57;14.40;99.90
55721;DHT22;41626;53.098;6.168;2023-05-10T09:39:33;14.40;99.90
55721;DHT22;41626;53.098;6.168;2023-05-10T09:42:07;14.80;99.90
55721;DHT22;41626;53.098;6.168;2023-05-10T09:44:33;14.80;99.90
55721;DHT22;41626;53.098;6.168;2023-05-10T09:47:00;14.80;99.90
55721;DHT22;41626;53.098;6.168;2023-05-10T09:49:26;14.90;99.90
55721;DHT22;41626;53.098;6.168;2023-05-10T09:52:03;14.70;99.90
55721;DHT22;41626;53.098;6.168;2023-05-10T09:54:29;14.90;99.90
55721;DHT22;41626;53.098;6.168;2023-05-10T09:56:55;14.70;99.90
55721;DHT22;41626;53.098;6.168;2023-05-10T09:59:20;14.70;99.90
55721;DHT22;41626;53.098;6.168;2023-05-10T10:01:50;15.00;99.90
55721;DHT22;41626;53.098;6.168;2023-05-10T10:04:16;14.90;99.90
55721;DHT22;41626;53.098;6.168;2023-05-10T10:06:42;15.00;99.90
55721;DHT22;41626;53.098;6.168;2023-05-10T10:09:08;15.00;99.90
55721;DHT22;41626;53.098;6.168;2023-05-10T10:11:35;14.80;99.90
55721;DHT22;41626;53.098;6.168;2023-05-10T10:14:01;14.90;99.90
55721;DHT22;41626;53.098;6.168;2023-05-10T10:16:29;15.00;99.90
55721;DHT22;41626;53.098;6.168;2023-05-10T10:18:55;14.80;99.90
55721;DHT22;41626;53.098;6.168;2023-05-10T10:21:22;14.90;99.90
55721;DHT22;41626;53.098;6.168;2023-05-10T10:23:47;15.20;99.90
55721;DHT22;41626;53.098;6.168;2023-05-10T10:26:14;15.30;99.90
55721;DHT22;41626;53.098;6.168;2023-05-10T10:29:00;15.20;99.90
55721;DHT22;41626;53.098;6.168;2023-05-10T10:34:38;15.20;99.90
55721;DHT22;41626;53.098;6.168;2023-05-10T10:37:05;15.40;99.90
55721;DHT22;41626;53.098;6.168;2023-05-10T10:39:32;15.20;99.90
55721;DHT22;41626;53.098;6.168;2023-05-10T10:41:58;15.10;99.90
55721;DHT22;41626;53.098;6.168;2023-05-10T10:44:26;15.20;99.90
55721;DHT22;41626;53.098;6.168;2023-05-10T10:49:32;15.10;99.90
55721;DHT22;41626;53.098;6.168;2023-05-10T10:52:21;15.20;99.90
55721;DHT22;41626;53.098;6.168;2023-05-10T10:54:58;15.40;99.90
55721;DHT22;41626;53.098;6.168;2023-05-10T10:57:25;15.40;99.90
55721;DHT22;41626;53.098;6.168;2023-05-10T10:59:58;15.20;99.90
55721;DHT22;41626;53.098;6.168;2023-05-10T11:07:59;15.10;99.90
55721;DHT22;41626;53.098;6.168;2023-05-10T11:10:26;15.20;99.90
55721;DHT22;41626;53.098;6.168;2023-05-10T11:15:19;15.20;99.90
55721;DHT22;41626;53.098;6.168;2023-05-10T11:17:47;15.30;99.90
55721;DHT22;41626;53.098;6.168;2023-05-10T11:20:17;15.30;99.90
55721;DHT22;41626;53.098;6.168;2023-05-10T11:22:52;15.20;99.90
55721;DHT22;41626;53.098;6.168;2023-05-10T11:25:19;15.20;99.90
55721;DHT22;41626;53.098;6.168;2023-05-10T11:27:46;15.10;99.90
55721;DHT22;41626;53.098;6.168;2023-05-10T11:30:13;15.00;99.90
55721;DHT22;41626;53.098;6.168;2023-05-10T11:32:39;15.00;99.90
55721;DHT22;41626;53.098;6.168;2023-05-10T11:35:10;15.20;99.90
55721;DHT22;41626;53.098;6.168;2023-05-10T11:37:37;15.00;99.90
55721;DHT22;41626;53.098;6.168;2023-05-10T11:40:08;14.90;99.90
55721;DHT22;41626;53.098;6.168;2023-05-10T11:42:37;14.90;99.90
55721;DHT22;41626;53.098;6.168;2023-05-10T11:45:02;15.10;99.90
55721;DHT22;41626;53.098;6.168;2023-05-10T11:47:28;15.20;99.90
55721;DHT22;41626;53.098;6.168;2023-05-10T11:49:54;15.20;99.90
55721;DHT22;41626;53.098;6.168;2023-05-10T11:52:20;15.20;99.90
55721;DHT22;41626;53.098;6.168;2023-05-10T11:54:52;15.00;99.90
55721;DHT22;41626;53.098;6.168;2023-05-10T11:57:19;15.10;99.90
55721;DHT22;41626;53.098;6.168;2023-05-10T11:59:46;15.20;99.90
55721;DHT22;41626;53.098;6.168;2023-05-10T12:02:15;15.00;99.90
55721;DHT22;41626;53.098;6.168;2023-05-10T12:04:41;15.00;99.90
55721;DHT22;41626;53.098;6.168;2023-05-10T12:07:07;15.10;99.90
55721;DHT22;41626;53.098;6.168;2023-05-10T12:09:32;15.10;99.90
55721;DHT22;41626;53.098;6.168;2023-05-10T12:11:58;15.10;99.90
55721;DHT22;41626;53.098;6.168;2023-05-10T12:14:24;15.30;99.90
55721;DHT22;41626;53.098;6.168;2023-05-10T12:16:50;15.30;99.90
55721;DHT22;41626;53.098;6.168;2023-05-10T12:19:19;15.30;99.90
55721;DHT22;41626;53.098;6.168;2023-05-10T12:21:48;15.50;99.90
55721;DHT22;41626;53.098;6.168;2023-05-10T12:24:14;15.60;99.90
55721;DHT22;41626;53.098;6.168;2023-05-10T12:26:44;15.60;99.90
55721;DHT22;41626;53.098;6.168;2023-05-10T12:29:18;15.60;99.90
55721;DHT22;41626;53.098;6.168;2023-05-10T12:31:54;15.20;99.90
55721;DHT22;41626;53.098;6.168;2023-05-10T12:34:31;15.10;99.90
55721;DHT22;41626;53.098;6.168;2023-05-10T12:36:58;15.00;99.90
55721;DHT22;41626;53.098;6.168;2023-05-10T12:39:24;14.80;99.90
55721;DHT22;41626;53.098;6.168;2023-05-10T12:41:51;14.90;99.90
55721;DHT22;41626;53.098;6.168;2023-05-10T12:44:17;15.00;99.90
55721;DHT22;41626;53.098;6.168;2023-05-10T12:46:43;15.10;99.90
55721;DHT22;41626;53.098;6.168;2023-05-10T12:49:09;15.20;99.90
55721;DHT22;41626;53.098;6.168;2023-05-10T12:51:35;15.20;99.90
55721;DHT22;41626;53.098;6.168;2023-05-10T12:54:00;15.30;99.90
55721;DHT22;41626;53.098;6.168;2023-05-10T12:56:26;15.20;99.90
55721;DHT22;41626;53.098;6.168;2023-05-10T12:58:52;15.40;99.90
55721;DHT22;41626;53.098;6.168;2023-05-10T13:01:17;15.50;99.90
55721;DHT22;41626;53.098;6.168;2023-05-10T13:03:43;15.70;99.90
55721;DHT22;41626;53.098;6.168;2023-05-10T13:06:09;15.70;99.90
55721;DHT22;41626;53.098;6.168;2023-05-10T13:08:34;15.80;99.90
55721;DHT22;41626;53.098;6.168;2023-05-10T13:11:01;15.90;99.90
55721;DHT22;41626;53.098;6.168;2023-05-10T13:13:27;15.90;99.90
55721;DHT22;41626;53.098;6.168;2023-05-10T13:15:53;16.10;99.90
55721;DHT22;41626;53.098;6.168;2023-05-10T13:18:18;16.30;99.90
55721;DHT22;41626;53.098;6.168;2023-05-10T13:20:44;16.50;99.90
55721;DHT22;41626;53.098;6.168;2023-05-10T13:23:10;16.60;99.90
55721;DHT22;41626;53.098;6.168;2023-05-10T13:25:36;16.60;99.90
55721;DHT22;41626;53.098;6.168;2023-05-10T13:28:02;16.40;99.90
55721;DHT22;41626;53.098;6.168;2023-05-10T13:30:28;16.60;99.90
55721;DHT22;41626;53.098;6.168;2023-05-10T13:32:54;16.60;99.90
55721;DHT22;41626;53.098;6.168;2023-05-10T13:35:20;16.30;99.90
55721;DHT22;41626;53.098;6.168;2023-05-10T13:37:45;16.20;99.90
55721;DHT22;41626;53.098;6.168;2023-05-10T13:40:11;16.20;99.90
55721;DHT22;41626;53.098;6.168;2023-05-10T13:42:37;16.00;99.90
55721;DHT22;41626;53.098;6.168;2023-05-10T13:45:03;16.00;99.90
55721;DHT22;41626;53.098;6.168;2023-05-10T13:47:29;16.00;99.90
55721;DHT22;41626;53.098;6.168;2023-05-10T13:49:55;16.10;99.90
55721;DHT22;41626;53.098;6.168;2023-05-10T13:52:21;16.10;99.90
55721;DHT22;41626;53.098;6.168;2023-05-10T13:54:47;16.10;99.90
55721;DHT22;41626;53.098;6.168;2023-05-10T13:57:12;16.20;99.90
55721;DHT22;41626;53.098;6.168;2023-05-10T13:59:39;16.20;99.90
55721;DHT22;41626;53.098;6.168;2023-05-10T14:02:07;16.30;99.90
55721;DHT22;41626;53.098;6.168;2023-05-10T14:04:32;16.30;99.90
55721;DHT22;41626;53.098;6.168;2023-05-10T14:07:00;16.60;99.90
55721;DHT22;41626;53.098;6.168;2023-05-10T14:09:26;16.40;99.90
55721;DHT22;41626;53.098;6.168;2023-05-10T14:11:52;16.60;99.90
55721;DHT22;41626;53.098;6.168;2023-05-10T14:14:17;16.50;99.90
55721;DHT22;41626;53.098;6.168;2023-05-10T14:16:44;16.50;99.90
55721;DHT22;41626;53.098;6.168;2023-05-10T14:19:10;16.60;99.90
55721;DHT22;41626;53.098;6.168;2023-05-10T14:21:36;16.60;99.90
55721;DHT22;41626;53.098;6.168;2023-05-10T14:24:02;16.60;99.90
55721;DHT22;41626;53.098;6.168;2023-05-10T14:26:28;16.60;99.90
55721;DHT22;41626;53.098;6.168;2023-05-10T14:28:54;16.70;99.90
55721;DHT22;41626;53.098;6.168;2023-05-10T14:31:19;16.80;99.90
55721;DHT22;41626;53.098;6.168;2023-05-10T14:33:46;16.90;99.90
55721;DHT22;41626;53.098;6.168;2023-05-10T14:36:12;16.90;99.90
55721;DHT22;41626;53.098;6.168;2023-05-10T14:38:39;16.80;99.90
55721;DHT22;41626;53.098;6.168;2023-05-10T14:41:04;16.90;99.90
55721;DHT22;41626;53.098;6.168;2023-05-10T14:43:30;16.70;99.90
55721;DHT22;41626;53.098;6.168;2023-05-10T14:45:56;16.90;99.90
55721;DHT22;41626;53.098;6.168;2023-05-10T14:48:22;17.00;99.90
55721;DHT22;41626;53.098;6.168;2023-05-10T14:50:48;16.90;99.90
55721;DHT22;41626;53.098;6.168;2023-05-10T14:53:15;16.80;99.90
55721;DHT22;41626;53.098;6.168;2023-05-10T14:55:40;16.90;99.90
55721;DHT22;41626;53.098;6.168;2023-05-10T14:58:06;17.10;99.90
55721;DHT22;41626;53.098;6.168;2023-05-10T15:00:32;17.10;99.90
55721;DHT22;41626;53.098;6.168;2023-05-10T15:02:57;17.00;99.90
55721;DHT22;41626;53.098;6.168;2023-05-10T15:05:23;17.00;99.90
55721;DHT22;41626;53.098;6.168;2023-05-10T15:07:49;16.80;99.90
55721;DHT22;41626;53.098;6.168;2023-05-10T15:10:15;16.60;99.90
55721;DHT22;41626;53.098;6.168;2023-05-10T15:12:40;16.50;99.90
55721;DHT22;41626;53.098;6.168;2023-05-10T15:15:07;16.60;99.90
55721;DHT22;41626;53.098;6.168;2023-05-10T15:17:33;16.60;99.90
55721;DHT22;41626;53.098;6.168;2023-05-10T15:19:59;16.60;99.90
55721;DHT22;41626;53.098;6.168;2023-05-10T15:22:25;16.40;99.90
55721;DHT22;41626;53.098;6.168;2023-05-10T15:24:51;16.40;99.90
55721;DHT22;41626;53.098;6.168;2023-05-10T15:27:16;16.40;99.90
55721;DHT22;41626;53.098;6.168;2023-05-10T15:29:42;16.20;99.90
55721;DHT22;41626;53.098;6.168;2023-05-10T15:32:13;16.30;99.90
55721;DHT22;41626;53.098;6.168;2023-05-10T15:34:40;16.40;99.90
55721;DHT22;41626;53.098;6.168;2023-05-10T15:37:06;16.50;99.90
55721;DHT22;41626;53.098;6.168;2023-05-10T15:39:32;16.50;99.90
55721;DHT22;41626;53.098;6.168;2023-05-10T15:41:57;16.30;99.90
55721;DHT22;41626;53.098;6.168;2023-05-10T15:44:23;16.30;99.90
55721;DHT22;41626;53.098;6.168;2023-05-10T15:46:49;16.10;99.90
55721;DHT22;41626;53.098;6.168;2023-05-10T15:49:15;16.20;99.90
55721;DHT22;41626;53.098;6.168;2023-05-10T15:51:40;16.10;99.90
55721;DHT22;41626;53.098;6.168;2023-05-10T15:54:06;15.90;99.90
55721;DHT22;41626;53.098;6.168;2023-05-10T15:56:32;16.10;99.90